sensor_id;sensor_type;location;lat;lon;timestamp;temperature;humidity
21672;DHT22;10997;52.242;8.168;2022-12-18T00:01:36;-9.30;99.90
21672;DHT22;10997;52.242;8.168;2022-12-18T00:06:37;-9.30;99.90
21672;DHT22;10997;52.242;8.168;2022-12-18T00:11:38;-9.50;99.90
21672;DHT22;10997;52.242;8.168;2022-12-18T00:16:39;-9.60;99.90
21672;DHT22;10997;52.242;8.168;2022-12-18T00:21:41;-9.60;99.90
21672;DHT22;10997;52.242;8.168;2022-12-18T00:26:43;-9.60;99.90
21672;DHT22;10997;52.242;8.168;2022-12-18T00:31:43;-9.50;99.90
21672;DHT22;10997;52.242;8.168;2022-12-18T00:36:46;-9.50;99.90
21672;DHT22;10997;52.242;8.168;2022-12-18T00:41:47;-9.40;99.90
21672;DHT22;10997;52.242;8.168;2022-12-18T00:47:10;-9.40;99.90
21672;DHT22;10997;52.242;8.168;2022-12-18T00:52:10;-9.40;99.90
21672;DHT22;10997;52.242;8.168;2022-12-18T00:57:11;-9.40;99.90
21672;DHT22;10997;52.242;8.168;2022-12-18T01:02:14;-9.40;99.90
21672;DHT22;10997;52.242;8.168;2022-12-18T01:07:15;-9.40;99.90
21672;DHT22;10997;52.242;8.168;2022-12-18T01:12:16;-9.40;99.90
21672;DHT22;10997;52.242;8.168;2022-12-18T01:17:16;-9.40;99.90
21672;DHT22;10997;52.242;8.168;2022-12-18T01:22:17;-9.50;99.90
21672;DHT22;10997;52.242;8.168;2022-12-18T01:27:18;-9.30;99.90
21672;DHT22;10997;52.242;8.168;2022-12-18T01:32:19;-9.40;99.90
21672;DHT22;10997;52.242;8.168;2022-12-18T01:37:19;-9.40;99.90
21672;DHT22;10997;52.242;8.168;2022-12-18T01:42:20;-9.40;99.90
21672;DHT22;10997;52.242;8.168;2022-12-18T01:47:46;-9.40;99.90
21672;DHT22;10997;52.242;8.168;2022-12-18T01:52:51;-9.30;99.90
21672;DHT22;10997;52.242;8.168;2022-12-18T01:57:55;-9.30;99.90
21672;DHT22;10997;52.242;8.168;2022-12-18T02:02:57;-9.30;99.90
21672;DHT22;10997;52.242;8.168;2022-12-18T02:08:09;-9.20;99.90
21672;DHT22;10997;52.242;8.168;2022-12-18T02:18:38;-8.80;99.90
21672;DHT22;10997;52.242;8.168;2022-12-18T02:29:00;-8.70;99.90
21672;DHT22;10997;52.242;8.168;2022-12-18T02:34:04;-8.60;99.90
21672;DHT22;10997;52.242;8.168;2022-12-18T02:39:10;-8.60;99.90
21672;DHT22;10997;52.242;8.168;2022-12-18T02:44:13;-8.60;99.90
21672;DHT22;10997;52.242;8.168;2022-12-18T03:00:12;-8.60;99.90
21672;DHT22;10997;52.242;8.168;2022-12-18T03:11:08;-8.70;99.90
21672;DHT22;10997;52.242;8.168;2022-12-18T03:16:12;-8.70;99.90
21672;DHT22;10997;52.242;8.168;2022-12-18T03:21:15;-8.70;99.90
21672;DHT22;10997;52.242;8.168;2022-12-18T03:26:23;-8.70;99.90
21672;DHT22;10997;52.242;8.168;2022-12-18T03:31:25;-8.60;99.90
21672;DHT22;10997;52.242;8.168;2022-12-18T03:36:32;-8.50;99.90
21672;DHT22;10997;52.242;8.168;2022-12-18T03:41:41;-8.50;99.90
21672;DHT22;10997;52.242;8.168;2022-12-18T03:47:05;-8.50;99.90
21672;DHT22;10997;52.242;8.168;2022-12-18T03:57:35;-8.30;99.90
21672;DHT22;10997;52.242;8.168;2022-12-18T04:02:38;-8.30;99.90
21672;DHT22;10997;52.242;8.168;2022-12-18T04:07:40;-8.20;99.90
21672;DHT22;10997;52.242;8.168;2022-12-18T04:12:41;-8.20;99.90
21672;DHT22;10997;52.242;8.168;2022-12-18T04:17:47;-8.20;99.90
21672;DHT22;10997;52.242;8.168;2022-12-18T04:22:49;-8.20;99.90
21672;DHT22;10997;52.242;8.168;2022-12-18T04:27:49;-8.20;99.90
21672;DHT22;10997;52.242;8.168;2022-12-18T04:32:50;-8.20;99.90
21672;DHT22;10997;52.242;8.168;2022-12-18T04:37:51;-8.20;99.90
21672;DHT22;10997;52.242;8.168;2022-12-18T04:42:51;-8.20;99.90
21672;DHT22;10997;52.242;8.168;2022-12-18T04:47:52;-8.20;99.90
21672;DHT22;10997;52.242;8.168;2022-12-18T04:52:52;-8.20;99.90
21672;DHT22;10997;52.242;8.168;2022-12-18T04:57:53;-8.30;99.90
21672;DHT22;10997;52.242;8.168;2022-12-18T05:02:54;-8.30;99.90
21672;DHT22;10997;52.242;8.168;2022-12-18T05:07:55;-8.30;99.90
21672;DHT22;10997;52.242;8.168;2022-12-18T05:12:55;-8.30;99.90
21672;DHT22;10997;52.242;8.168;2022-12-18T05:17:59;-8.30;99.90
21672;DHT22;10997;52.242;8.168;2022-12-18T05:23:03;-8.30;99.90
21672;DHT22;10997;52.242;8.168;2022-12-18T05:28:04;-8.30;99.90
21672;DHT22;10997;52.242;8.168;2022-12-18T05:33:04;-8.30;99.90
21672;DHT22;10997;52.242;8.168;2022-12-18T05:38:05;-8.30;99.90
21672;DHT22;10997;52.242;8.168;2022-12-18T05:43:05;-8.20;99.90
21672;DHT22;10997;52.242;8.168;2022-12-18T05:48:07;-8.30;99.90
21672;DHT22;10997;52.242;8.168;2022-12-18T05:53:08;-8.20;99.90
21672;DHT22;10997;52.242;8.168;2022-12-18T05:58:10;-8.20;99.90
21672;DHT22;10997;52.242;8.168;2022-12-18T06:03:12;-8.20;99.90
21672;DHT22;10997;52.242;8.168;2022-12-18T06:08:13;-8.20;99.90
21672;DHT22;10997;52.242;8.168;2022-12-18T06:13:14;-8.10;99.90
21672;DHT22;10997;52.242;8.168;2022-12-18T06:18:14;-8.10;99.90
21672;DHT22;10997;52.242;8.168;2022-12-18T06:23:15;-8.10;99.90
21672;DHT22;10997;52.242;8.168;2022-12-18T06:28:16;-8.10;99.90
21672;DHT22;10997;52.242;8.168;2022-12-18T06:33:16;-8.10;99.90
21672;DHT22;10997;52.242;8.168;2022-12-18T06:38:17;-8.10;99.90
21672;DHT22;10997;52.242;8.168;2022-12-18T06:43:18;-8.10;99.90
21672;DHT22;10997;52.242;8.168;2022-12-18T06:48:19;-8.10;99.90
21672;DHT22;10997;52.242;8.168;2022-12-18T06:53:20;-8.10;99.90
21672;DHT22;10997;52.242;8.168;2022-12-18T06:58:20;-8.20;99.90
21672;DHT22;10997;52.242;8.168;2022-12-18T07:03:21;-8.20;99.90
21672;DHT22;10997;52.242;8.168;2022-12-18T07:08:22;-8.20;99.90
21672;DHT22;10997;52.242;8.168;2022-12-18T07:13:22;-8.20;99.90
21672;DHT22;10997;52.242;8.168;2022-12-18T07:18:23;-8.20;99.90
21672;DHT22;10997;52.242;8.168;2022-12-18T07:23:24;-8.30;99.90
21672;DHT22;10997;52.242;8.168;2022-12-18T07:28:24;-8.30;99.90
21672;DHT22;10997;52.242;8.168;2022-12-18T07:33:25;-8.30;99.90
21672;DHT22;10997;52.242;8.168;2022-12-18T07:38:26;-8.30;99.90
21672;DHT22;10997;52.242;8.168;2022-12-18T07:43:26;-8.30;99.90
21672;DHT22;10997;52.242;8.168;2022-12-18T07:48:30;-8.20;99.90
21672;DHT22;10997;52.242;8.168;2022-12-18T07:53:32;-8.10;99.90
21672;DHT22;10997;52.242;8.168;2022-12-18T07:58:34;-8.10;99.90
21672;DHT22;10997;52.242;8.168;2022-12-18T08:03:35;-8.00;99.90
21672;DHT22;10997;52.242;8.168;2022-12-18T08:08:36;-7.90;99.90
21672;DHT22;10997;52.242;8.168;2022-12-18T08:13:37;-7.80;99.90
21672;DHT22;10997;52.242;8.168;2022-12-18T08:18:37;-7.70;99.90
21672;DHT22;10997;52.242;8.168;2022-12-18T08:23:39;-7.50;99.90
21672;DHT22;10997;52.242;8.168;2022-12-18T08:28:45;-7.30;99.90
21672;DHT22;10997;52.242;8.168;2022-12-18T08:33:49;-7.10;99.90
21672;DHT22;10997;52.242;8.168;2022-12-18T08:38:50;-7.00;99.90
21672;DHT22;10997;52.242;8.168;2022-12-18T08:43:51;-6.80;99.90
21672;DHT22;10997;52.242;8.168;2022-12-18T08:49:11;-6.70;99.90
21672;DHT22;10997;52.242;8.168;2022-12-18T08:54:12;-6.60;99.90
21672;DHT22;10997;52.242;8.168;2022-12-18T08:59:14;-6.50;99.90
21672;DHT22;10997;52.242;8.168;2022-12-18T09:04:14;-6.20;99.90
21672;DHT22;10997;52.242;8.168;2022-12-18T09:09:15;-6.10;99.90
21672;DHT22;10997;52.242;8.168;2022-12-18T09:14:16;-6.00;99.90
21672;DHT22;10997;52.242;8.168;2022-12-18T09:19:16;-5.90;99.90
21672;DHT22;10997;52.242;8.168;2022-12-18T09:24:17;-5.80;99.90
21672;DHT22;10997;52.242;8.168;2022-12-18T09:29:18;-5.80;99.90
21672;DHT22;10997;52.242;8.168;2022-12-18T09:34:18;-5.70;99.90
21672;DHT22;10997;52.242;8.168;2022-12-18T09:39:21;-5.70;99.90
21672;DHT22;10997;52.242;8.168;2022-12-18T09:44:25;-5.60;99.90
21672;DHT22;10997;52.242;8.168;2022-12-18T09:49:29;-5.40;99.90
21672;DHT22;10997;52.242;8.168;2022-12-18T09:54:39;-5.10;99.90
21672;DHT22;10997;52.242;8.168;2022-12-18T09:59:48;-4.90;99.90
21672;DHT22;10997;52.242;8.168;2022-12-18T10:10:22;-4.70;99.90
21672;DHT22;10997;52.242;8.168;2022-12-18T10:15:36;-4.50;99.90
21672;DHT22;10997;52.242;8.168;2022-12-18T10:20:46;-4.30;99.90
21672;DHT22;10997;52.242;8.168;2022-12-18T10:26:08;-4.20;99.90
21672;DHT22;10997;52.242;8.168;2022-12-18T10:31:16;-4.10;99.90
21672;DHT22;10997;52.242;8.168;2022-12-18T10:36:17;-3.90;99.90
21672;DHT22;10997;52.242;8.168;2022-12-18T10:46:23;-3.60;99.90
21672;DHT22;10997;52.242;8.168;2022-12-18T10:51:29;-3.50;99.90
21672;DHT22;10997;52.242;8.168;2022-12-18T10:56:35;-3.50;99.90
21672;DHT22;10997;52.242;8.168;2022-12-18T11:07:02;-3.40;99.90
21672;DHT22;10997;52.242;8.168;2022-12-18T11:12:04;-3.50;99.90
21672;DHT22;10997;52.242;8.168;2022-12-18T11:17:31;-3.50;99.90
21672;DHT22;10997;52.242;8.168;2022-12-18T11:22:35;-3.50;99.90
21672;DHT22;10997;52.242;8.168;2022-12-18T11:27:38;-3.50;99.90
21672;DHT22;10997;52.242;8.168;2022-12-18T11:32:43;-3.40;99.90
21672;DHT22;10997;52.242;8.168;2022-12-18T11:37:53;-3.30;99.90
21672;DHT22;10997;52.242;8.168;2022-12-18T11:43:15;-3.20;99.90
21672;DHT22;10997;52.242;8.168;2022-12-18T11:48:24;-3.10;99.90
21672;DHT22;10997;52.242;8.168;2022-12-18T11:53:27;-2.80;99.90
21672;DHT22;10997;52.242;8.168;2022-12-18T12:09:46;-2.50;99.90
21672;DHT22;10997;52.242;8.168;2022-12-18T12:41:14;-2.00;99.90
21672;DHT22;10997;52.242;8.168;2022-12-18T12:46:39;-1.90;99.90
21672;DHT22;10997;52.242;8.168;2022-12-18T12:51:45;-1.90;99.90
21672;DHT22;10997;52.242;8.168;2022-12-18T13:07:38;-1.80;99.90
21672;DHT22;10997;52.242;8.168;2022-12-18T13:13:10;-1.90;99.90
21672;DHT22;10997;52.242;8.168;2022-12-18T13:18:23;-1.90;99.90
21672;DHT22;10997;52.242;8.168;2022-12-18T13:33:47;-1.80;99.90
21672;DHT22;10997;52.242;8.168;2022-12-18T13:38:47;-1.80;99.90
21672;DHT22;10997;52.242;8.168;2022-12-18T13:44:37;-1.90;99.90
21672;DHT22;10997;52.242;8.168;2022-12-18T13:49:41;-1.90;99.90
21672;DHT22;10997;52.242;8.168;2022-12-18T13:54:50;-1.80;99.90
21672;DHT22;10997;52.242;8.168;2022-12-18T13:59:51;-1.80;99.90
21672;DHT22;10997;52.242;8.168;2022-12-18T14:04:52;-1.90;99.90
21672;DHT22;10997;52.242;8.168;2022-12-18T14:09:55;-1.90;99.90
21672;DHT22;10997;52.242;8.168;2022-12-18T14:14:58;-1.90;99.90
21672;DHT22;10997;52.242;8.168;2022-12-18T14:20:00;-1.90;99.90
21672;DHT22;10997;52.242;8.168;2022-12-18T14:30:27;-2.00;99.90
21672;DHT22;10997;52.242;8.168;2022-12-18T14:35:29;-2.00;99.90
21672;DHT22;10997;52.242;8.168;2022-12-18T14:40:30;-2.10;99.90
21672;DHT22;10997;52.242;8.168;2022-12-18T14:45:39;-2.10;99.90
21672;DHT22;10997;52.242;8.168;2022-12-18T14:50:42;-2.10;99.90
21672;DHT22;10997;52.242;8.168;2022-12-18T14:55:47;-2.10;99.90
21672;DHT22;10997;52.242;8.168;2022-12-18T15:00:48;-2.10;99.90
21672;DHT22;10997;52.242;8.168;2022-12-18T15:05:49;-2.10;99.90
21672;DHT22;10997;52.242;8.168;2022-12-18T15:10:49;-2.10;99.90
21672;DHT22;10997;52.242;8.168;2022-12-18T15:15:50;-2.10;99.90
21672;DHT22;10997;52.242;8.168;2022-12-18T15:20:56;-2.10;99.90
21672;DHT22;10997;52.242;8.168;2022-12-18T15:26:00;-2.10;99.90
21672;DHT22;10997;52.242;8.168;2022-12-18T15:31:05;-2.10;99.90
21672;DHT22;10997;52.242;8.168;2022-12-18T15:36:14;-2.10;99.90
21672;DHT22;10997;52.242;8.168;2022-12-18T15:41:17;-2.00;99.90
21672;DHT22;10997;52.242;8.168;2022-12-18T15:46:20;-2.00;99.90
21672;DHT22;10997;52.242;8.168;2022-12-18T15:51:27;-2.00;99.90
21672;DHT22;10997;52.242;8.168;2022-12-18T15:56:28;-2.00;99.90
21672;DHT22;10997;52.242;8.168;2022-12-18T16:01:50;-1.90;99.90
21672;DHT22;10997;52.242;8.168;2022-12-18T16:06:51;-1.90;99.90
21672;DHT22;10997;52.242;8.168;2022-12-18T16:11:54;-1.90;99.90
21672;DHT22;10997;52.242;8.168;2022-12-18T16:17:01;-1.80;99.90
21672;DHT22;10997;52.242;8.168;2022-12-18T16:22:03;-1.80;99.90
21672;DHT22;10997;52.242;8.168;2022-12-18T16:27:04;-1.80;99.90
21672;DHT22;10997;52.242;8.168;2022-12-18T16:32:04;-1.80;99.90
21672;DHT22;10997;52.242;8.168;2022-12-18T16:37:07;-1.70;99.90
21672;DHT22;10997;52.242;8.168;2022-12-18T16:42:18;-1.70;99.90
21672;DHT22;10997;52.242;8.168;2022-12-18T16:47:19;-1.70;99.90
21672;DHT22;10997;52.242;8.168;2022-12-18T16:52:20;-1.60;99.90
21672;DHT22;10997;52.242;8.168;2022-12-18T16:57:21;-1.60;99.90
21672;DHT22;10997;52.242;8.168;2022-12-18T17:02:24;-1.60;99.90
21672;DHT22;10997;52.242;8.168;2022-12-18T17:07:25;-1.50;99.90
21672;DHT22;10997;52.242;8.168;2022-12-18T17:12:27;-1.50;99.90
21672;DHT22;10997;52.242;8.168;2022-12-18T17:17:28;-1.50;99.90
21672;DHT22;10997;52.242;8.168;2022-12-18T17:22:28;-1.40;99.90
21672;DHT22;10997;52.242;8.168;2022-12-18T17:27:29;-1.40;99.90
21672;DHT22;10997;52.242;8.168;2022-12-18T17:32:29;-1.30;99.90
21672;DHT22;10997;52.242;8.168;2022-12-18T17:37:30;-1.30;99.90
21672;DHT22;10997;52.242;8.168;2022-12-18T17:42:30;-1.20;99.90
21672;DHT22;10997;52.242;8.168;2022-12-18T17:47:34;-1.20;99.90
21672;DHT22;10997;52.242;8.168;2022-12-18T17:52:34;-1.10;99.90
21672;DHT22;10997;52.242;8.168;2022-12-18T17:57:35;-1.10;99.90
21672;DHT22;10997;52.242;8.168;2022-12-18T18:02:36;-1.10;99.90
21672;DHT22;10997;52.242;8.168;2022-12-18T18:07:37;-1.10;99.90
21672;DHT22;10997;52.242;8.168;2022-12-18T18:12:38;-1.00;99.90
21672;DHT22;10997;52.242;8.168;2022-12-18T18:17:59;-1.00;99.90
21672;DHT22;10997;52.242;8.168;2022-12-18T18:23:00;-0.90;99.90
21672;DHT22;10997;52.242;8.168;2022-12-18T18:28:00;-0.90;99.90
21672;DHT22;10997;52.242;8.168;2022-12-18T18:33:01;-0.80;99.90
21672;DHT22;10997;52.242;8.168;2022-12-18T18:38:02;-0.80;99.90
21672;DHT22;10997;52.242;8.168;2022-12-18T18:43:03;-0.80;99.90
21672;DHT22;10997;52.242;8.168;2022-12-18T18:48:04;-0.80;99.90
21672;DHT22;10997;52.242;8.168;2022-12-18T18:53:05;-0.80;99.90
21672;DHT22;10997;52.242;8.168;2022-12-18T18:58:05;-0.80;99.90
21672;DHT22;10997;52.242;8.168;2022-12-18T19:03:06;-0.70;99.90
21672;DHT22;10997;52.242;8.168;2022-12-18T19:08:07;-0.70;99.90
21672;DHT22;10997;52.242;8.168;2022-12-18T19:13:13;-0.70;99.90
21672;DHT22;10997;52.242;8.168;2022-12-18T19:18:21;-0.60;99.90
21672;DHT22;10997;52.242;8.168;2022-12-18T19:23:22;-0.60;99.90
21672;DHT22;10997;52.242;8.168;2022-12-18T19:28:23;-0.50;99.90
21672;DHT22;10997;52.242;8.168;2022-12-18T19:33:29;-0.50;99.90
21672;DHT22;10997;52.242;8.168;2022-12-18T19:38:30;-0.40;99.90
21672;DHT22;10997;52.242;8.168;2022-12-18T19:43:30;-0.40;99.90
21672;DHT22;10997;52.242;8.168;2022-12-18T19:48:32;-0.40;99.90
21672;DHT22;10997;52.242;8.168;2022-12-18T19:53:33;-0.40;99.90
21672;DHT22;10997;52.242;8.168;2022-12-18T19:58:34;-0.40;99.90
21672;DHT22;10997;52.242;8.168;2022-12-18T20:03:35;-0.40;99.90
21672;DHT22;10997;52.242;8.168;2022-12-18T20:08:36;-0.40;99.90
21672;DHT22;10997;52.242;8.168;2022-12-18T20:13:36;-0.50;99.90
21672;DHT22;10997;52.242;8.168;2022-12-18T20:18:37;-0.50;99.90
21672;DHT22;10997;52.242;8.168;2022-12-18T20:23:38;-0.40;99.90
21672;DHT22;10997;52.242;8.168;2022-12-18T20:28:38;-0.40;99.90
21672;DHT22;10997;52.242;8.168;2022-12-18T20:33:40;-0.50;99.90
21672;DHT22;10997;52.242;8.168;2022-12-18T20:38:41;-0.40;99.90
21672;DHT22;10997;52.242;8.168;2022-12-18T20:43:42;-0.40;99.90
21672;DHT22;10997;52.242;8.168;2022-12-18T20:48:43;-0.50;99.90
21672;DHT22;10997;52.242;8.168;2022-12-18T20:53:45;-0.50;99.90
21672;DHT22;10997;52.242;8.168;2022-12-18T20:58:46;-0.40;99.90
21672;DHT22;10997;52.242;8.168;2022-12-18T21:03:47;-0.40;99.90
21672;DHT22;10997;52.242;8.168;2022-12-18T21:08:48;-0.40;99.90
21672;DHT22;10997;52.242;8.168;2022-12-18T21:13:49;-0.30;99.90
21672;DHT22;10997;52.242;8.168;2022-12-18T21:18:49;-0.30;99.90
21672;DHT22;10997;52.242;8.168;2022-12-18T21:23:50;-0.30;99.90
21672;DHT22;10997;52.242;8.168;2022-12-18T21:28:55;-0.30;99.90
21672;DHT22;10997;52.242;8.168;2022-12-18T21:33:56;-0.30;99.90
21672;DHT22;10997;52.242;8.168;2022-12-18T21:38:58;-0.20;99.90
21672;DHT22;10997;52.242;8.168;2022-12-18T21:43:59;-0.20;99.90
21672;DHT22;10997;52.242;8.168;2022-12-18T21:49:06;-0.20;99.90
21672;DHT22;10997;52.242;8.168;2022-12-18T21:54:07;-0.10;99.90
21672;DHT22;10997;52.242;8.168;2022-12-18T21:59:08;-0.10;99.90
21672;DHT22;10997;52.242;8.168;2022-12-18T22:04:09;-0.10;99.90
21672;DHT22;10997;52.242;8.168;2022-12-18T22:09:13;-0.10;99.90
21672;DHT22;10997;52.242;8.168;2022-12-18T22:14:14;0.00;99.90
21672;DHT22;10997;52.242;8.168;2022-12-18T22:19:15;0.00;99.90
21672;DHT22;10997;52.242;8.168;2022-12-18T22:24:21;0.00;99.90
21672;DHT22;10997;52.242;8.168;2022-12-18T22:29:23;0.10;99.90
21672;DHT22;10997;52.242;8.168;2022-12-18T22:34:42;0.10;99.90
21672;DHT22;10997;52.242;8.168;2022-12-18T22:39:43;0.10;99.90
21672;DHT22;10997;52.242;8.168;2022-12-18T22:44:44;0.10;99.90
21672;DHT22;10997;52.242;8.168;2022-12-18T22:49:44;0.10;99.90
21672;DHT22;10997;52.242;8.168;2022-12-18T22:54:45;0.20;99.90
21672;DHT22;10997;52.242;8.168;2022-12-18T22:59:46;0.30;99.90
21672;DHT22;10997;52.242;8.168;2022-12-18T23:04:46;0.30;99.90
21672;DHT22;10997;52.242;8.168;2022-12-18T23:09:49;0.40;99.90
21672;DHT22;10997;52.242;8.168;2022-12-18T23:14:49;0.40;99.90
21672;DHT22;10997;52.242;8.168;2022-12-18T23:19:50;0.40;99.90
21672;DHT22;10997;52.242;8.168;2022-12-18T23:30:52;0.50;99.90
21672;DHT22;10997;52.242;8.168;2022-12-18T23:35:59;0.50;99.90
21672;DHT22;10997;52.242;8.168;2022-12-18T23:41:05;0.50;99.90
21672;DHT22;10997;52.242;8.168;2022-12-18T23:46:30;0.50;99.90
21672;DHT22;10997;52.242;8.168;2022-12-18T23:51:31;0.50;99.90
21672;DHT22;10997;52.242;8.168;2022-12-18T23:56:32;0.50;99.90
